Time;durP1;ratioP1;P1;durP2;ratioP2;P2;SDS_P1;SDS_P2;PMS_P1;PMS_P2;Temp;Humidity;BMP_temperature;BMP_pressure;BME280_temperature;BME280_humidity;BME280_pressure;Samples;Min_cycle;Max_cycle;Signal;HPM_P1;HPM_P2
2024/01/08 00:01:11;;;;;;;8.25;6.65;;;;;;;-3.06;100.00;102747.00;5032368;28;20041;-69
2024/01/08 00:03:40;;;;;;;8.23;5.80;;;;;;;-3.04;100.00;102755.59;5032762;28;20053;-69
2024/01/08 00:06:06;;;;;;;7.80;5.82;;;;;;;-3.07;100.00;102745.31;5014807;28;20030;-70
2024/01/08 00:08:31;;;;;;;6.15;5.55;;;;;;;-2.96;100.00;102744.72;5032508;28;20029;-69
2024/01/08 00:10:57;;;;;;;5.60;5.10;;;;;;;-2.99;100.00;102743.13;5032488;28;20029;-69
2024/01/08 00:13:22;;;;;;;5.93;4.95;;;;;;;-2.99;100.00;102750.97;5032404;28;20056;-70
2024/01/08 00:15:48;;;;;;;5.93;4.78;;;;;;;-3.00;100.00;102748.44;5014655;28;20033;-70
2024/01/08 00:18:13;;;;;;;7.40;5.63;;;;;;;-3.00;100.00;102751.91;5032322;28;20029;-69
2024/01/08 00:20:38;;;;;;;6.38;5.13;;;;;;;-3.00;100.00;102749.28;5032235;28;20433;-69
2024/01/08 00:23:04;;;;;;;6.82;5.63;;;;;;;-3.04;100.00;102742.53;5032158;28;20124;-69
2024/01/08 00:25:29;;;;;;;6.82;5.47;;;;;;;-2.98;100.00;102750.06;5032256;28;20060;-69
2024/01/08 00:27:56;;;;;;;6.55;5.60;;;;;;;-3.07;100.00;102741.84;5032265;28;20072;-70
2024/01/08 00:30:21;;;;;;;6.97;5.25;;;;;;;-2.99;100.00;102755.38;5032430;28;20492;-69
2024/01/08 00:32:47;;;;;;;7.55;4.78;;;;;;;-3.07;100.00;102747.06;5023916;28;20068;-69
2024/01/08 00:35:12;;;;;;;6.47;5.15;;;;;;;-3.04;100.00;102753.00;5032000;28;20030;-69
2024/01/08 00:37:43;;;;;;;9.60;7.60;;;;;;;-3.03;100.00;102745.97;5032026;28;20371;-69
2024/01/08 00:40:09;;;;;;;11.30;8.32;;;;;;;-3.05;100.00;102745.22;5031928;28;20029;-70
2024/01/08 00:42:36;;;;;;;10.07;8.15;;;;;;;-3.06;100.00;102746.16;5014188;28;20029;-70
2024/01/08 00:45:02;;;;;;;12.55;7.95;;;;;;;-3.05;100.00;102753.06;5031923;28;20108;-70
2024/01/08 00:47:28;;;;;;;10.98;8.50;;;;;;;-3.11;100.00;102756.84;5031945;28;20025;-69
2024/01/08 00:49:53;;;;;;;13.10;9.27;;;;;;;-3.05;100.00;102751.31;5031862;28;20499;-70
2024/01/08 00:52:18;;;;;;;18.17;13.98;;;;;;;-3.03;100.00;102745.97;5031498;28;20060;-69
2024/01/08 00:54:44;;;;;;;21.83;12.95;;;;;;;-2.98;100.00;102749.22;5031722;28;20033;-69
2024/01/08 00:57:09;;;;;;;19.92;11.45;;;;;;;-3.05;100.00;102746.06;5031778;28;20025;-69
2024/01/08 00:59:34;;;;;;;20.27;14.32;;;;;;;-3.05;100.00;102751.31;5031670;28;20028;-69
2024/01/08 01:02:00;;;;;;;13.93;8.52;;;;;;;-2.99;100.00;102755.38;5031666;28;20042;-69
2024/01/08 01:04:25;;;;;;;18.83;12.77;;;;;;;-3.01;100.00;102750.22;5031683;28;20394;-69
2024/01/08 01:06:50;;;;;;;12.40;9.70;;;;;;;-2.96;100.00;102757.81;5031545;28;20029;-69
2024/01/08 01:09:16;;;;;;;11.63;9.43;;;;;;;-3.04;100.00;102746.91;5031618;28;20079;-69
2024/01/08 01:11:42;;;;;;;13.32;11.80;;;;;;;-2.89;100.00;102759.19;5031721;28;20064;-71
2024/01/08 01:14:07;;;;;;;12.10;8.65;;;;;;;-2.93;100.00;102761.13;5031587;28;20042;-69
2024/01/08 01:16:33;;;;;;;13.82;8.98;;;;;;;-3.00;100.00;102751.91;5031481;28;20367;-70
2024/01/08 01:18:59;;;;;;;13.48;10.27;;;;;;;-2.95;100.00;102752.50;5013532;28;20025;-70
2024/01/08 01:21:25;;;;;;;16.05;10.65;;;;;;;-3.10;100.00;102750.69;5031243;28;20386;-70
2024/01/08 01:23:51;;;;;;;13.63;9.80;;;;;;;-3.12;100.00;102755.16;5031384;28;20447;-70
2024/01/08 01:26:16;;;;;;;18.77;12.02;;;;;;;-3.16;100.00;102753.63;5031479;28;20521;-69
2024/01/08 01:28:42;;;;;;;17.52;11.73;;;;;;;-3.12;100.00;102760.41;5031494;28;20105;-70
2024/01/08 01:31:10;;;;;;;10.05;8.40;;;;;;;-3.13;100.00;102753.47;5013603;28;20437;-69
2024/01/08 01:33:35;;;;;;;12.57;8.57;;;;;;;-3.10;100.00;102761.16;5031310;28;20061;-69
2024/01/08 01:36:00;;;;;;;8.43;6.53;;;;;;;-3.08;100.00;102750.63;5031176;28;20501;-70
2024/01/08 01:38:26;;;;;;;11.48;8.05;;;;;;;-3.14;100.00;102757.00;5031240;28;20109;-70
2024/01/08 01:40:51;;;;;;;9.35;6.63;;;;;;;-3.18;100.00;102752.84;5031155;28;20443;-69
2024/01/08 01:43:25;;;;;;;11.63;7.90;;;;;;;-3.31;100.00;102747.38;5031206;28;20034;-70
2024/01/08 01:45:53;;;;;;;10.60;7.07;;;;;;;-3.39;100.00;102757.38;5013511;28;20120;-69
2024/01/08 01:48:19;;;;;;;8.45;7.05;;;;;;;-3.46;100.00;102759.47;5013426;28;20120;-69
2024/01/08 01:50:45;;;;;;;11.30;7.30;;;;;;;-3.50;100.00;102757.91;5031103;28;20037;-69
2024/01/08 01:53:11;;;;;;;10.15;7.20;;;;;;;-3.39;100.00;102757.38;5031011;28;20394;-69
2024/01/08 01:55:37;;;;;;;11.98;6.65;;;;;;;-3.50;100.00;102755.28;5013345;28;20083;-69
2024/01/08 01:58:02;;;;;;;10.32;6.80;;;;;;;-3.49;100.00;102759.59;5031100;28;20017;-69
2024/01/08 02:00:28;;;;;;;9.85;7.78;;;;;;;-3.47;100.00;102770.84;5030824;28;20504;-70
2024/01/08 02:02:54;;;;;;;9.90;6.95;;;;;;;-3.48;100.00;102763.91;5031669;28;20025;-69
2024/01/08 02:05:19;;;;;;;9.35;6.82;;;;;;;-3.39;100.00;102772.22;5034449;28;20021;-70
2024/01/08 02:07:47;;;;;;;9.23;6.25;;;;;;;-3.34;100.00;102773.69;5016728;28;20128;-70
2024/01/08 02:10:12;;;;;;;7.43;5.00;;;;;;;-3.24;100.00;102777.53;5034285;28;20053;-69
2024/01/08 02:12:38;;;;;;;10.77;8.45;;;;;;;-3.30;100.00;102782.22;5034309;28;20115;-70
2024/01/08 02:15:04;;;;;;;8.02;6.03;;;;;;;-3.24;100.00;102779.31;5034331;28;20030;-69
2024/01/08 02:17:30;;;;;;;7.57;6.78;;;;;;;-3.09;100.00;102762.84;5034269;28;20121;-69
2024/01/08 02:19:56;;;;;;;8.07;6.03;;;;;;;-3.29;100.00;102778.69;5034817;28;20033;-68
2024/01/08 02:22:21;;;;;;;7.78;6.82;;;;;;;-3.38;100.00;102769.53;5034007;28;20040;-69
2024/01/08 02:24:47;;;;;;;6.68;5.97;;;;;;;-3.54;100.00;102773.81;5034089;28;20437;-70
2024/01/08 02:27:13;;;;;;;7.80;6.20;;;;;;;-3.63;100.00;102772.50;5034011;28;20039;-69
2024/01/08 02:29:39;;;;;;;7.45;5.63;;;;;;;-3.74;100.00;102774.81;5034251;28;20379;-70
2024/01/08 02:32:06;;;;;;;6.85;5.00;;;;;;;-3.68;100.00;102768.44;5033932;28;20031;-69
2024/01/08 02:34:31;;;;;;;7.28;6.35;;;;;;;-3.85;100.00;102779.69;5033936;28;20033;-69
2024/01/08 02:36:57;;;;;;;7.85;4.97;;;;;;;-3.93;100.00;102766.16;5033974;28;20068;-68
2024/01/08 02:39:22;;;;;;;6.63;5.93;;;;;;;-3.97;100.00;102765.44;5033852;28;20033;-67
2024/01/08 02:41:47;;;;;;;7.53;6.05;;;;;;;-4.02;100.00;102777.03;5033840;28;20037;-68
2024/01/08 02:44:13;;;;;;;6.93;5.03;;;;;;;-4.04;100.00;102774.50;5033811;28;20037;-69
2024/01/08 02:46:38;;;;;;;7.75;5.88;;;;;;;-4.01;100.00;102787.41;5033641;28;20029;-69
2024/01/08 02:49:03;;;;;;;6.65;5.22;;;;;;;-4.13;100.00;102775.75;5034217;28;20034;-69
2024/01/08 02:51:29;;;;;;;6.55;4.82;;;;;;;-4.13;100.00;102775.75;5033745;28;20095;-68
2024/01/08 02:53:54;;;;;;;6.88;5.63;;;;;;;-4.08;100.00;102799.03;5033602;28;20021;-69
2024/01/08 02:56:20;;;;;;;9.02;6.70;;;;;;;-4.10;100.00;102793.88;5015809;28;20072;-69
2024/01/08 02:58:49;;;;;;;8.55;5.70;;;;;;;-4.11;100.00;102796.56;5033594;28;20451;-69
2024/01/08 03:01:14;;;;;;;6.28;4.85;;;;;;;-4.09;100.00;102794.72;5033448;28;20132;-69
2024/01/08 03:03:40;;;;;;;8.60;6.38;;;;;;;-4.13;100.00;102790.56;5033452;28;20108;-69
2024/01/08 03:06:05;;;;;;;10.05;4.60;;;;;;;-4.15;100.00;102798.47;5033416;28;20068;-69
2024/01/08 03:08:30;;;;;;;11.63;6.57;;;;;;;-4.23;100.00;102794.53;5033452;28;20363;-69
2024/01/08 03:10:56;;;;;;;5.75;5.10;;;;;;;-4.08;100.00;102799.88;5033316;28;20466;-69
2024/01/08 03:13:21;;;;;;;9.20;5.72;;;;;;;-4.02;100.00;102798.78;5033268;28;20061;-68
2024/01/08 03:15:46;;;;;;;8.25;5.00;;;;;;;-4.03;100.00;102796.25;5015486;28;20067;-69
2024/01/08 03:18:12;;;;;;;7.03;4.38;;;;;;;-4.04;100.00;102790.16;5033212;28;20038;-69
2024/01/08 03:20:38;;;;;;;8.25;5.30;;;;;;;-4.04;100.00;102787.56;5033159;28;20038;-68
2024/01/08 03:23:04;;;;;;;9.55;5.60;;;;;;;-3.93;100.00;102792.25;5015679;28;20478;-68
2024/01/08 03:25:29;;;;;;;7.82;5.47;;;;;;;-3.91;100.00;102787.81;5033149;28;20026;-68
2024/01/08 03:27:54;;;;;;;6.32;4.75;;;;;;;-3.83;100.00;102793.50;5033096;28;20042;-68
2024/01/08 03:30:20;;;;;;;7.70;5.20;;;;;;;-3.76;100.00;102793.19;5015173;28;20026;-69
2024/01/08 03:32:45;;;;;;;5.53;4.35;;;;;;;-3.81;100.00;102792.53;5015344;28;20462;-68
2024/01/08 03:35:11;;;;;;;7.78;5.78;;;;;;;-3.73;100.00;102793.94;5033043;28;20032;-68
2024/01/08 03:37:36;;;;;;;8.48;5.40;;;;;;;-3.67;100.00;102794.50;5032939;28;20030;-68
2024/01/08 03:40:04;;;;;;;6.95;5.53;;;;;;;-3.63;100.00;102790.81;5032895;28;20034;-68
2024/01/08 03:42:29;;;;;;;9.75;6.43;;;;;;;-3.63;100.00;102805.66;5032992;28;20029;-69
2024/01/08 03:44:54;;;;;;;7.70;4.97;;;;;;;-3.79;100.00;102803.75;5032896;28;20025;-68
2024/01/08 03:47:19;;;;;;;7.10;5.07;;;;;;;-3.69;100.00;102803.34;5032926;28;20474;-70
2024/01/08 03:49:45;;;;;;;8.18;5.97;;;;;;;-3.58;100.00;102793.19;5032784;28;20067;-68
2024/01/08 03:52:11;;;;;;;7.75;4.95;;;;;;;-3.69;100.00;102800.72;5032701;28;20033;-68
2024/01/08 03:54:37;;;;;;;9.15;5.75;;;;;;;-3.67;100.00;102802.34;5032682;28;20037;-68
2024/01/08 03:57:02;;;;;;;7.93;6.18;;;;;;;-3.61;100.00;102795.97;5032633;28;20470;-68
2024/01/08 03:59:28;;;;;;;6.45;5.05;;;;;;;-3.69;100.00;102790.25;5032583;28;20029;-68
2024/01/08 04:01:54;;;;;;;8.00;5.20;;;;;;;-3.55;100.00;102800.88;5014948;28;20021;-68
2024/01/08 04:04:19;;;;;;;8.13;5.82;;;;;;;-3.63;100.00;102809.09;5032497;28;20041;-69
2024/01/08 04:06:46;;;;;;;8.65;6.22;;;;;;;-3.62;100.00;102810.78;5032512;28;20116;-68
2024/01/08 04:09:12;;;;;;;9.27;6.57;;;;;;;-3.59;100.00;102807.19;5032433;28;20449;-68
2024/01/08 04:11:37;;;;;;;9.15;6.38;;;;;;;-3.51;100.00;102798.03;5032409;28;20031;-69
2024/01/08 04:14:03;;;;;;;10.35;6.85;;;;;;;-3.66;100.00;102783.13;5032361;28;20034;-69
2024/01/08 04:16:28;;;;;;;11.88;6.20;;;;;;;-3.67;100.00;102799.72;5032769;28;20055;-68
2024/01/08 04:18:53;;;;;;;8.10;5.45;;;;;;;-3.60;100.00;102806.34;5032286;28;20060;-68
2024/01/08 04:21:19;;;;;;;5.70;3.63;;;;;;;-3.58;100.00;102798.41;5032090;28;20112;-68
2024/01/08 04:23:44;;;;;;;8.23;5.43;;;;;;;-3.55;100.00;102795.66;5032458;28;20029;-69
2024/01/08 04:26:17;;;;;;;6.07;4.22;;;;;;;-3.52;100.00;102787.66;5031728;28;20029;-69
2024/01/08 04:28:43;;;;;;;7.65;5.15;;;;;;;-3.33;100.00;102798.06;5032221;28;20567;-69
2024/01/08 04:31:19;;;;;;;5.78;4.22;;;;;;;-3.29;100.00;102795.22;5032283;28;20414;-69
2024/01/08 04:33:45;;;;;;;5.32;4.60;;;;;;;-3.35;100.00;102798.16;5032168;28;20022;-69
2024/01/08 04:36:12;;;;;;;8.55;5.20;;;;;;;-3.39;100.00;102806.22;5032072;28;20036;-68
2024/01/08 04:38:37;;;;;;;7.35;4.90;;;;;;;-3.24;100.00;102800.22;5032035;28;20029;-68
2024/01/08 04:41:03;;;;;;;5.75;4.47;;;;;;;-3.21;100.00;102793.06;5014377;28;20029;-69
2024/01/08 04:43:28;;;;;;;11.13;5.50;;;;;;;-3.28;100.00;102794.31;5031986;28;20034;-68
2024/01/08 04:45:53;;;;;;;7.68;4.85;;;;;;;-3.34;100.00;102796.38;5014235;28;20508;-68
2024/01/08 04:48:19;;;;;;;6.18;4.38;;;;;;;-3.34;100.00;102796.38;5031862;28;20025;-68
2024/01/08 04:50:44;;;;;;;8.23;5.57;;;;;;;-3.39;100.00;102801.00;5031868;28;20037;-68
2024/01/08 04:53:09;;;;;;;8.70;4.78;;;;;;;-3.40;100.00;102796.69;5031846;28;20033;-69
2024/01/08 04:55:34;;;;;;;7.32;4.80;;;;;;;-3.38;100.00;102795.69;5031849;28;20167;-68
2024/01/08 04:58:00;;;;;;;4.60;3.92;;;;;;;-3.37;100.00;102799.16;5031674;28;20106;-69
2024/01/08 05:00:25;;;;;;;10.15;5.25;;;;;;;-3.36;100.00;102804.31;5031705;28;20072;-69
2024/01/08 05:02:51;;;;;;;5.82;4.53;;;;;;;-3.33;100.00;102809.38;5013987;28;20029;-68
2024/01/08 05:05:16;;;;;;;7.68;5.03;;;;;;;-3.40;100.00;102797.53;5031693;28;20032;-68
2024/01/08 05:07:41;;;;;;;5.85;4.88;;;;;;;-3.27;100.00;102798.63;5031664;28;20030;-69
2024/01/08 05:10:07;;;;;;;6.80;4.78;;;;;;;-3.30;100.00;102798.78;5013751;28;20033;-69
2024/01/08 05:12:33;;;;;;;8.48;5.47;;;;;;;-3.25;100.00;102799.38;5031452;28;20117;-68
2024/01/08 05:14:58;;;;;;;6.68;4.88;;;;;;;-3.29;100.00;102799.63;5031250;28;20120;-68
2024/01/08 05:17:23;;;;;;;7.50;4.95;;;;;;;-3.19;100.00;102793.84;5031480;28;20029;-69
2024/01/08 05:19:51;;;;;;;9.57;6.10;;;;;;;-3.26;100.00;102795.06;5031281;28;20080;-68
2024/01/08 05:22:16;;;;;;;9.30;5.78;;;;;;;-3.29;100.00;102795.22;5031244;28;20021;-69
2024/01/08 05:24:42;;;;;;;7.95;5.40;;;;;;;-3.17;100.00;102799.88;5031303;28;20055;-67
2024/01/08 05:27:07;;;;;;;9.50;5.07;;;;;;;-3.33;100.00;102793.69;5031226;28;20029;-69
2024/01/08 05:29:32;;;;;;;8.75;5.22;;;;;;;-3.27;100.00;102797.75;5031268;28;20037;-69
2024/01/08 05:31:57;;;;;;;11.07;6.50;;;;;;;-3.26;100.00;102794.22;5031199;28;20076;-68
2024/01/08 05:34:23;;;;;;;7.35;4.82;;;;;;;-3.26;100.00;102799.47;5031390;28;20029;-68
2024/01/08 05:36:48;;;;;;;9.35;6.15;;;;;;;-3.35;100.00;102792.06;5013515;28;20034;-68
2024/01/08 05:39:16;;;;;;;7.95;4.85;;;;;;;-3.32;100.00;102795.38;5034019;28;20540;-68
2024/01/08 05:41:41;;;;;;;7.13;4.88;;;;;;;-3.29;100.00;102797.84;5034627;28;20037;-68
2024/01/08 05:44:08;;;;;;;9.20;5.95;;;;;;;-3.32;100.00;102798.00;5034416;28;20059;-69
2024/01/08 05:46:33;;;;;;;7.85;5.32;;;;;;;-3.34;100.00;102789.38;5033768;28;20118;-69
2024/01/08 05:48:59;;;;;;;8.50;5.35;;;;;;;-3.37;100.00;102786.94;4999233;28;20502;-68
2024/01/08 05:51:28;;;;;;;8.18;6.05;;;;;;;-3.30;100.00;102788.31;5034330;28;20037;-68
2024/01/08 05:53:54;;;;;;;9.55;6.38;;;;;;;-3.30;100.00;102782.22;5034665;28;20390;-68
2024/01/08 05:56:19;;;;;;;9.18;6.75;;;;;;;-3.28;100.00;102790.84;5034495;28;20026;-69
2024/01/08 05:58:45;;;;;;;6.90;4.90;;;;;;;-3.25;100.00;102794.16;5034604;28;20075;-68
2024/01/08 06:01:10;;;;;;;9.88;6.47;;;;;;;-3.27;100.00;102793.38;5034593;28;20033;-68
2024/01/08 06:03:35;;;;;;;10.80;7.10;;;;;;;-3.31;100.00;102791.84;5034445;28;20035;-68
2024/01/08 06:06:01;;;;;;;14.20;7.03;;;;;;;-3.38;100.00;102781.78;5034382;28;20021;-69
2024/01/08 06:08:26;;;;;;;9.02;6.32;;;;;;;-3.34;100.00;102789.38;5034386;28;20444;-69
2024/01/08 06:10:52;;;;;;;11.52;7.55;;;;;;;-3.34;100.00;102797.22;5016559;28;20120;-68
2024/01/08 06:13:17;;;;;;;10.90;7.40;;;;;;;-3.36;100.00;102787.78;5034319;28;20474;-69
2024/01/08 06:15:43;;;;;;;12.90;7.43;;;;;;;-3.31;100.00;102791.00;5034251;28;20033;-69
2024/01/08 06:18:08;;;;;;;11.10;6.95;;;;;;;-3.27;100.00;102790.75;5034180;28;20501;-69
2024/01/08 06:20:34;;;;;;;7.65;6.20;;;;;;;-3.19;100.00;102791.22;5034136;28;20056;-69
2024/01/08 06:23:00;;;;;;;9.20;6.43;;;;;;;-3.28;100.00;102786.47;5034220;28;20096;-68
2024/01/08 06:25:25;;;;;;;10.40;6.43;;;;;;;-3.23;100.00;102781.84;5033980;28;20103;-69
2024/01/08 06:27:50;;;;;;;11.60;6.53;;;;;;;-3.14;100.00;102783.16;5034136;28;20021;-69
2024/01/08 06:30:17;;;;;;;7.05;6.18;;;;;;;-3.06;100.00;102785.38;5034013;28;20037;-70
2024/01/08 06:32:43;;;;;;;7.60;5.65;;;;;;;-3.19;100.00;102788.59;5034041;28;20030;-68
2024/01/08 06:35:08;;;;;;;10.23;6.68;;;;;;;-3.15;100.00;102786.72;5034108;28;20048;-68
2024/01/08 06:37:34;;;;;;;11.20;6.72;;;;;;;-3.15;100.00;102781.47;5033913;28;20474;-68
2024/01/08 06:39:59;;;;;;;11.77;7.53;;;;;;;-3.14;100.00;102783.16;5033707;28;20032;-67
2024/01/08 06:42:24;;;;;;;9.50;6.18;;;;;;;-3.10;100.00;102782.09;5033840;28;20075;-67
2024/01/08 06:44:50;;;;;;;20.08;7.20;;;;;;;-3.17;100.00;102781.56;5033856;28;20025;-68
2024/01/08 06:47:15;;;;;;;11.70;6.60;;;;;;;-3.07;100.00;102783.69;5033764;28;20100;-68
2024/01/08 06:49:40;;;;;;;9.02;6.70;;;;;;;-3.03;100.00;102780.84;5033388;28;20029;-68
2024/01/08 06:52:06;;;;;;;11.70;7.65;;;;;;;-3.05;100.00;102782.69;5033753;28;20525;-67
2024/01/08 06:54:31;;;;;;;11.05;6.85;;;;;;;-3.01;100.00;102783.38;5033546;28;20032;-67
2024/01/08 06:56:57;;;;;;;15.95;8.38;;;;;;;-3.00;100.00;102785.06;5033481;28;20037;-69
2024/01/08 06:59:23;;;;;;;16.10;7.07;;;;;;;-3.01;100.00;102778.16;5033653;28;20033;-68
2024/01/08 07:01:51;;;;;;;11.50;6.80;;;;;;;-3.06;100.00;102785.38;5033516;28;20018;-67
2024/01/08 07:04:16;;;;;;;12.13;8.35;;;;;;;-3.03;100.00;102777.38;5033501;28;20029;-67
2024/01/08 07:06:42;;;;;;;13.70;10.55;;;;;;;-3.10;100.00;102776.00;5033396;28;20033;-68
2024/01/08 07:09:07;;;;;;;8.73;6.63;;;;;;;-2.99;100.00;102789.38;5033473;28;20378;-67
2024/01/08 07:11:32;;;;;;;13.23;8.00;;;;;;;-2.95;100.00;102789.13;5033401;28;20417;-69
2024/01/08 07:13:58;;;;;;;12.30;7.18;;;;;;;-2.99;100.00;102786.75;5033431;28;20120;-68
2024/01/08 07:16:25;;;;;;;11.80;8.30;;;;;;;-2.91;100.00;102795.06;5033310;28;20038;-67
2024/01/08 07:18:50;;;;;;;10.63;7.00;;;;;;;-2.92;100.00;102798.59;5015566;28;20030;-67
2024/01/08 07:21:16;;;;;;;9.75;7.47;;;;;;;-2.86;100.00;102800.94;5033111;28;20040;-66
2024/01/08 07:23:45;;;;;;;11.85;7.63;;;;;;;-2.84;100.00;102807.78;5033156;28;20041;-68
2024/01/08 07:26:14;;;;;;;11.82;8.45;;;;;;;-2.99;100.00;102798.06;5033033;28;20476;-67
2024/01/08 07:28:42;;;;;;;10.20;6.43;;;;;;;-2.89;100.00;102803.69;5033347;28;20036;-67
2024/01/08 07:31:07;;;;;;;16.60;9.52;;;;;;;-2.90;100.00;102812.44;5033041;28;20444;-67
2024/01/08 07:33:33;;;;;;;12.65;7.85;;;;;;;-2.81;100.00;102809.38;5033223;28;20029;-68
2024/01/08 07:35:59;;;;;;;14.55;8.77;;;;;;;-2.81;100.00;102818.09;5033082;28;20056;-67
2024/01/08 07:38:24;;;;;;;11.02;7.95;;;;;;;-2.93;100.00;102805.59;5032884;28;20474;-67
2024/01/08 07:40:49;;;;;;;13.82;8.15;;;;;;;-2.85;100.00;102798.22;5032864;28;20033;-68
2024/01/08 07:43:15;;;;;;;11.65;8.13;;;;;;;-2.76;100.00;102812.59;5032958;28;20095;-68
2024/01/08 07:45:40;;;;;;;11.85;8.02;;;;;;;-2.76;100.00;102820.47;5015213;28;20530;-68
2024/01/08 07:48:06;;;;;;;10.65;7.18;;;;;;;-2.61;100.00;102822.28;5033006;28;20546;-68
2024/01/08 07:50:31;;;;;;;10.48;7.43;;;;;;;-2.72;100.00;102816.75;5032761;28;20076;-68
2024/01/08 07:52:57;;;;;;;12.48;8.65;;;;;;;-2.67;100.00;102825.22;5032675;28;20108;-68
2024/01/08 07:55:22;;;;;;;11.77;8.40;;;;;;;-2.71;100.00;102831.53;5032589;28;20112;-69
2024/01/08 07:57:47;;;;;;;12.38;8.07;;;;;;;-2.65;100.00;102819.91;5032687;28;20057;-69
2024/01/08 08:00:13;;;;;;;11.98;8.50;;;;;;;-2.71;100.00;102823.69;5031916;28;20462;-68
2024/01/08 08:02:39;;;;;;;13.85;7.68;;;;;;;-2.73;100.00;102822.06;5032386;28;20033;-68
2024/01/08 08:05:05;;;;;;;11.85;7.57;;;;;;;-2.70;100.00;102824.53;5032523;28;20037;-68
2024/01/08 08:07:32;;;;;;;8.13;6.03;;;;;;;-2.67;100.00;102824.38;5032430;28;20033;-69
2024/01/08 08:09:57;;;;;;;10.05;7.30;;;;;;;-2.58;100.00;102823.91;5032356;28;20029;-68
2024/01/08 08:12:22;;;;;;;9.25;6.55;;;;;;;-2.62;100.00;102824.97;5032476;28;20028;-69
2024/01/08 08:14:48;;;;;;;8.35;6.72;;;;;;;-2.73;100.00;102820.31;5032455;28;20474;-68
2024/01/08 08:17:14;;;;;;;13.80;8.57;;;;;;;-2.60;100.00;102841.47;5032409;28;20100;-68
2024/01/08 08:19:43;;;;;;;11.13;7.72;;;;;;;-2.64;100.00;102829.44;5032241;28;20040;-68
2024/01/08 08:22:12;;;;;;;14.13;8.07;;;;;;;-2.58;100.00;102837.00;5032245;28;20026;-68
2024/01/08 08:24:41;;;;;;;11.75;7.63;;;;;;;-2.52;100.00;102839.31;5032254;28;20083;-70
2024/01/08 08:27:11;;;;;;;13.15;8.82;;;;;;;-2.51;100.00;102835.75;5032484;28;20060;-68
2024/01/08 08:29:43;;;;;;;11.95;9.20;;;;;;;-2.51;100.00;102833.13;5032080;28;20025;-68
2024/01/08 08:32:09;;;;;;;11.13;7.93;;;;;;;-2.55;100.00;102836.84;5032083;28;20084;-68
2024/01/08 08:34:35;;;;;;;11.15;8.23;;;;;;;-2.43;100.00;102843.19;5032186;28;20037;-67
2024/01/08 08:37:00;;;;;;;11.95;8.07;;;;;;;-2.50;100.00;102845.31;5031983;28;20036;-69
2024/01/08 08:39:26;;;;;;;11.45;7.88;;;;;;;-2.48;100.00;102846.06;5032063;28;20029;-68
2024/01/08 08:41:51;;;;;;;11.07;6.38;;;;;;;-2.40;100.00;102830.78;5032064;28;20461;-70
2024/01/08 08:44:17;;;;;;;8.55;5.78;;;;;;;-2.36;100.00;102842.78;5032033;28;20022;-69
2024/01/08 08:46:43;;;;;;;20.13;7.97;;;;;;;-2.26;100.00;102841.41;5014393;28;20029;-69
2024/01/08 08:49:09;;;;;;;9.68;6.78;;;;;;;-2.39;100.00;102852.59;5031857;28;20371;-70
2024/01/08 08:51:35;;;;;;;9.70;8.18;;;;;;;-2.35;100.00;102847.09;5031807;28;20065;-69
2024/01/08 08:54:04;;;;;;;9.98;6.80;;;;;;;-2.39;100.00;102845.56;5031800;28;20092;-70
2024/01/08 08:56:32;;;;;;;8.57;6.47;;;;;;;-2.40;100.00;102841.25;5031727;28;20025;-71
2024/01/08 08:58:59;;;;;;;10.27;6.10;;;;;;;-2.24;100.00;102857.03;5031806;28;20057;-71
2024/01/08 09:01:25;;;;;;;9.18;7.25;;;;;;;-2.28;100.00;102848.50;5031689;28;20039;-70
2024/01/08 09:03:52;;;;;;;12.25;7.28;;;;;;;-2.35;100.00;102844.47;5031720;28;20040;-71
2024/01/08 09:06:17;;;;;;;10.05;7.47;;;;;;;-2.39;100.00;102849.97;5031533;28;20032;-71
2024/01/08 09:08:42;;;;;;;9.68;6.93;;;;;;;-2.32;100.00;102852.19;5013841;28;20441;-70
2024/01/08 09:11:08;;;;;;;11.48;7.53;;;;;;;-2.41;100.00;102850.06;5031439;28;20447;-71
2024/01/08 09:13:33;;;;;;;9.27;6.50;;;;;;;-2.33;100.00;102853.09;5031551;28;20397;-70
2024/01/08 09:15:59;;;;;;;8.75;7.13;;;;;;;-2.42;100.00;102858.00;5031586;28;20045;-72
2024/01/08 09:18:26;;;;;;;9.18;6.53;;;;;;;-2.27;100.00;102865.91;5031545;28;20462;-69
2024/01/08 09:20:51;;;;;;;9.02;5.95;;;;;;;-2.27;100.00;102865.06;5031398;28;20548;-71
2024/01/08 09:23:17;;;;;;;10.25;7.72;;;;;;;-2.30;100.00;102862.59;5031407;28;20033;-71
2024/01/08 09:25:42;;;;;;;9.32;6.07;;;;;;;-2.09;100.00;102868.47;5031363;28;20088;-71
2024/01/08 09:28:08;;;;;;;9.45;6.85;;;;;;;-2.24;100.00;102870.97;5031361;28;20030;-70
2024/01/08 09:30:33;;;;;;;10.57;7.45;;;;;;;-2.23;100.00;102859.56;5031225;28;20029;-69
2024/01/08 09:32:58;;;;;;;10.52;8.27;;;;;;;-2.34;100.00;102861.88;5031476;28;20484;-69
2024/01/08 09:35:24;;;;;;;10.10;7.28;;;;;;;-2.28;100.00;102872.06;5031401;28;20523;-71
2024/01/08 09:37:49;;;;;;;8.68;6.93;;;;;;;-2.21;100.00;102876.06;5031260;28;20041;-71
2024/01/08 09:40:15;;;;;;;8.25;7.03;;;;;;;-2.32;100.00;102872.28;5031096;28;20048;-70
2024/01/08 09:42:40;;;;;;;9.30;8.00;;;;;;;-2.46;100.00;102869.56;5031191;28;20080;-70
2024/01/08 09:45:11;;;;;;;12.15;7.15;;;;;;;-2.45;100.00;102879.94;5031121;28;20112;-71
2024/01/08 09:47:40;;;;;;;11.40;7.82;;;;;;;-2.41;100.00;102880.63;5031549;28;20080;-70
2024/01/08 09:50:09;;;;;;;10.27;7.10;;;;;;;-2.38;100.00;102883.09;5031030;28;20091;-69
2024/01/08 09:52:38;;;;;;;8.52;5.43;;;;;;;-2.38;100.00;102883.94;5030890;28;20497;-70
2024/01/08 09:55:04;;;;;;;13.05;7.47;;;;;;;-2.33;100.00;102881.91;5030979;28;20375;-69
2024/01/08 09:57:29;;;;;;;11.32;7.93;;;;;;;-2.24;100.00;102881.47;5031236;28;20456;-68
2024/01/08 09:59:55;;;;;;;10.82;7.38;;;;;;;-1.93;100.00;102885.06;5030877;28;20135;-69
2024/01/08 10:02:21;;;;;;;9.45;8.07;;;;;;;-1.41;100.00;102884.84;5030900;28;20026;-68
2024/01/08 10:04:46;;;;;;;10.88;7.35;;;;;;;-1.40;100.00;102889.16;5030809;28;20025;-69
2024/01/08 10:07:13;;;;;;;9.70;6.80;;;;;;;-1.64;100.00;102891.34;5030744;28;20029;-69
2024/01/08 10:09:38;;;;;;;9.50;7.47;;;;;;;-1.73;100.00;102887.47;5030909;28;20521;-68
2024/01/08 10:12:09;;;;;;;11.20;8.27;;;;;;;-1.77;100.00;102888.53;5030787;28;20049;-69
2024/01/08 10:14:34;;;;;;;7.50;6.18;;;;;;;-1.76;100.00;102886.75;5031528;28;20029;-68
2024/01/08 10:17:00;;;;;;;8.77;6.88;;;;;;;-1.79;100.00;102877.28;5030901;28;20371;-70
2024/01/08 10:19:27;;;;;;;9.00;7.15;;;;;;;-1.82;100.00;102880.09;5030991;28;20061;-68
2024/01/08 10:22:13;;;;;;;8.63;6.60;;;;;;;-1.84;100.00;102884.56;5030972;28;20092;-67
2024/01/08 10:24:41;;;;;;;8.73;7.40;;;;;;;-1.86;100.00;102886.44;5032225;28;20042;-68
2024/01/08 10:27:07;;;;;;;9.40;7.32;;;;;;;-1.79;100.00;102879.91;5034050;28;20029;-68
2024/01/08 10:29:32;;;;;;;10.10;8.02;;;;;;;-1.71;100.00;102885.59;5034004;28;20048;-71
2024/01/08 10:31:59;;;;;;;11.30;7.63;;;;;;;-1.59;100.00;102873.59;5033965;28;20029;-71
2024/01/08 10:34:26;;;;;;;10.25;7.25;;;;;;;-1.00;100.00;102872.81;5033969;28;20029;-71
2024/01/08 10:36:53;;;;;;;9.63;8.15;;;;;;;-0.48;100.00;102884.69;5033946;28;20029;-69
2024/01/08 10:39:18;;;;;;;10.00;7.28;;;;;;;-0.95;100.00;102876.03;5016099;28;20029;-69
2024/01/08 10:41:44;;;;;;;10.05;8.05;;;;;;;-1.32;100.00;102879.06;5033694;28;20034;-69
2024/01/08 10:44:09;;;;;;;8.68;6.20;;;;;;;-1.63;100.00;102872.06;5015923;28;20123;-70
2024/01/08 10:46:45;;;;;;;11.73;9.05;;;;;;;-1.28;100.00;102867.47;5033696;28;20044;-70
2024/01/08 10:49:18;;;;;;;8.50;7.45;;;;;;;-0.65;100.00;102864.66;5033738;28;20462;-71
2024/01/08 10:51:47;;;;;;;9.32;7.22;;;;;;;-0.48;100.00;102859.25;5033775;28;20029;-71
2024/01/08 10:54:17;;;;;;;9.70;7.80;;;;;;;-0.68;100.00;102856.97;5033568;28;20393;-69
2024/01/08 10:56:45;;;;;;;7.85;5.97;;;;;;;-0.80;100.00;102848.03;5034078;28;20152;-71
2024/01/08 10:59:11;;;;;;;10.93;7.32;;;;;;;-1.05;100.00;102853.88;5033673;28;20489;-72
2024/01/08 11:01:38;;;;;;;7.68;6.63;;;;;;;-1.23;100.00;102848.81;5033466;28;20029;-71
2024/01/08 11:04:05;;;;;;;8.30;6.20;;;;;;;-1.32;100.00;102863.31;5033558;28;20079;-71
2024/01/08 11:06:33;;;;;;;8.70;6.78;;;;;;;-1.43;100.00;102858.69;5033399;28;20031;-72
2024/01/08 11:09:04;;;;;;;7.80;6.78;;;;;;;-1.53;100.00;102859.28;5033407;28;20057;-73